Terminal Aerodrome Forecast
Issued by NWS Northern Indiana

Home | Current Version | Previous Version | Graphics & Text | Print | Product List | Glossary On
Versions: 1 2 3 4 5 6 7 8 9 10 11 12 13 14 15 16 17 18 19
821
FTUS43 KIWX 261012 AAA
TAFFWA
TAF AMD
KFWA 261012Z 2610/2706 28006KT 3SM BR BKN004
     FM261400 28007KT P6SM BKN015
     FM261800 23008KT P6SM BKN150
     FM262300 15010KT P6SM VCTS BKN100CB
     FM270200 16012KT 4SM -TSRA BR BKN035CB=

USA.gov is the U.S. government's official web portal to all federal, state and local government web resources and services.